createdAt,value
2023-03-29T00:00:03.084Z,3.10
2023-03-29T00:01:03.249Z,3.10
2023-03-29T00:02:03.208Z,3.10
2023-03-29T00:03:03.443Z,3.10
2023-03-29T00:04:03.381Z,3.10
2023-03-29T00:05:03.290Z,3.10
2023-03-29T00:06:03.375Z,3.10
2023-03-29T00:07:03.423Z,3.10
2023-03-29T00:08:03.387Z,3.10
2023-03-29T00:09:03.417Z,3.10
2023-03-29T00:10:03.861Z,3.20
2023-03-29T00:11:03.067Z,3.20
2023-03-29T00:12:03.049Z,3.20
2023-03-29T00:13:03.074Z,3.20
2023-03-29T00:14:03.028Z,3.20
2023-03-29T00:15:03.062Z,3.20
2023-03-29T00:16:03.537Z,3.20
2023-03-29T00:17:03.638Z,3.20
2023-03-29T00:18:02.723Z,3.20
2023-03-29T00:19:02.681Z,3.20
2023-03-29T00:20:02.737Z,3.20
2023-03-29T00:21:02.832Z,3.20
2023-03-29T00:22:02.649Z,3.30
2023-03-29T00:23:02.739Z,3.30
2023-03-29T00:24:02.806Z,3.30
2023-03-29T00:25:02.775Z,3.30
2023-03-29T00:26:03.051Z,3.30
2023-03-29T00:27:02.906Z,3.30
2023-03-29T00:28:02.830Z,3.30
2023-03-29T00:29:02.899Z,3.40
2023-03-29T00:30:02.922Z,3.40
2023-03-29T00:31:03.065Z,3.40
2023-03-29T00:32:02.920Z,3.40
2023-03-29T00:33:03.088Z,3.40
2023-03-29T00:34:03.124Z,3.40
2023-03-29T00:35:03.137Z,3.40
2023-03-29T00:36:03.218Z,3.40
2023-03-29T00:37:03.220Z,3.40
2023-03-29T00:38:03.321Z,3.50
2023-03-29T00:39:03.357Z,3.50
2023-03-29T00:40:03.424Z,3.50
2023-03-29T00:41:03.647Z,3.50
2023-03-29T00:42:02.656Z,3.50
2023-03-29T00:43:02.611Z,3.50
2023-03-29T00:44:02.762Z,3.50
2023-03-29T00:45:02.845Z,3.50
2023-03-29T00:46:02.862Z,3.50
2023-03-29T00:47:02.940Z,3.50
2023-03-29T00:48:03.006Z,3.50
2023-03-29T00:49:02.947Z,3.50
2023-03-29T00:50:02.976Z,3.60
2023-03-29T00:51:03.291Z,3.60
2023-03-29T00:52:03.082Z,3.60
2023-03-29T00:53:03.114Z,3.60
2023-03-29T00:54:03.040Z,3.60
2023-03-29T00:55:03.186Z,3.60
2023-03-29T00:56:03.299Z,3.60
2023-03-29T00:57:03.368Z,3.60
2023-03-29T00:58:03.418Z,3.60
2023-03-29T00:59:03.495Z,3.60
2023-03-29T01:00:03.549Z,3.60
2023-03-29T01:01:03.764Z,3.60
2023-03-29T01:02:02.650Z,3.60
2023-03-29T01:03:02.772Z,3.70
2023-03-29T01:04:02.798Z,3.70
2023-03-29T01:05:02.902Z,3.70
2023-03-29T01:06:02.867Z,3.70
2023-03-29T01:07:03.026Z,3.70
2023-03-29T01:08:02.960Z,3.70
2023-03-29T01:09:03.101Z,3.70
2023-03-29T01:10:03.063Z,3.70
2023-03-29T01:11:03.270Z,3.70
2023-03-29T01:12:03.066Z,3.70
2023-03-29T01:13:03.183Z,3.80
2023-03-29T01:14:03.093Z,3.80
2023-03-29T01:15:03.177Z,3.80
2023-03-29T01:16:03.367Z,3.80
2023-03-29T01:17:03.289Z,3.80
2023-03-29T01:18:03.359Z,3.80
2023-03-29T01:19:03.321Z,3.80
2023-03-29T01:20:03.275Z,3.80
2023-03-29T01:21:03.713Z,3.80
2023-03-29T01:22:03.381Z,3.80
2023-03-29T01:23:03.566Z,3.80
2023-03-29T01:24:03.513Z,3.90
2023-03-29T01:25:03.511Z,3.90
2023-03-29T01:26:03.597Z,3.90
2023-03-29T01:27:02.642Z,3.90
2023-03-29T01:28:02.684Z,3.90
2023-03-29T01:29:02.671Z,3.90
2023-03-29T01:30:02.707Z,3.90
2023-03-29T01:31:02.874Z,3.90
2023-03-29T01:32:02.932Z,3.90
2023-03-29T01:33:02.856Z,3.90
2023-03-29T01:34:02.968Z,3.90
2023-03-29T01:35:03.016Z,3.90
2023-03-29T01:36:02.983Z,3.90
2023-03-29T01:37:02.955Z,3.90
2023-03-29T01:38:03.074Z,3.90
2023-03-29T01:39:03.066Z,3.90
2023-03-29T01:40:03.179Z,3.90
2023-03-29T01:41:03.542Z,3.90
2023-03-29T01:42:03.190Z,3.90
2023-03-29T01:43:03.277Z,3.90
2023-03-29T01:44:03.433Z,3.90
2023-03-29T01:45:03.269Z,3.90
2023-03-29T01:46:03.444Z,3.90
2023-03-29T01:47:03.441Z,3.90
2023-03-29T01:48:03.495Z,3.90
2023-03-29T01:49:03.529Z,3.90
2023-03-29T01:50:03.506Z,3.90
2023-03-29T01:51:03.586Z,3.90
2023-03-29T01:52:03.447Z,3.90
2023-03-29T01:53:03.602Z,3.90
2023-03-29T01:54:03.536Z,4.00
2023-03-29T01:55:02.700Z,4.00
2023-03-29T01:56:03.571Z,4.00
2023-03-29T01:57:03.707Z,4.00
2023-03-29T01:58:02.627Z,4.00
2023-03-29T01:59:02.600Z,4.00
2023-03-29T02:00:02.725Z,4.00
2023-03-29T02:01:02.915Z,4.00
2023-03-29T02:02:02.884Z,4.00
2023-03-29T02:03:02.921Z,4.00
2023-03-29T02:04:02.860Z,4.00
2023-03-29T02:05:02.986Z,4.00
2023-03-29T02:06:02.931Z,4.00
2023-03-29T02:07:02.848Z,4.00
2023-03-29T02:08:02.901Z,4.00
2023-03-29T02:09:03.029Z,4.00
2023-03-29T02:10:03.061Z,4.00
2023-03-29T02:11:03.175Z,4.00
2023-03-29T02:12:03.178Z,4.00
2023-03-29T02:13:03.089Z,4.00
2023-03-29T02:14:03.071Z,4.00
2023-03-29T02:15:03.077Z,4.00
2023-03-29T02:16:03.111Z,4.00
2023-03-29T02:17:03.161Z,4.00
2023-03-29T02:18:03.199Z,4.00
2023-03-29T02:19:03.327Z,4.00
2023-03-29T02:20:03.302Z,4.00
2023-03-29T02:21:03.580Z,4.00
2023-03-29T02:22:03.397Z,4.00
2023-03-29T02:23:03.459Z,4.00
2023-03-29T02:24:03.552Z,4.00
2023-03-29T02:25:03.528Z,4.00
2023-03-29T02:26:03.567Z,4.00
2023-03-29T02:27:03.624Z,4.00
2023-03-29T02:28:02.729Z,4.00
2023-03-29T02:29:02.787Z,4.00
2023-03-29T02:30:02.833Z,4.00
2023-03-29T02:31:03.068Z,4.00
2023-03-29T02:32:03.012Z,4.00
2023-03-29T02:33:03.123Z,4.00
2023-03-29T02:34:03.208Z,4.00
2023-03-29T02:35:03.108Z,4.00
2023-03-29T02:36:03.225Z,4.00
2023-03-29T02:37:03.162Z,4.00
2023-03-29T02:38:03.309Z,4.00
2023-03-29T02:39:03.335Z,4.00
2023-03-29T02:40:03.286Z,4.00
2023-03-29T02:41:03.450Z,4.00
2023-03-29T02:42:03.404Z,4.00
2023-03-29T02:43:03.380Z,4.00
2023-03-29T02:44:03.405Z,4.00
2023-03-29T02:45:03.408Z,4.00
2023-03-29T02:46:03.408Z,4.00
2023-03-29T02:47:03.461Z,4.00
2023-03-29T02:48:03.437Z,4.00
2023-03-29T02:49:03.469Z,4.00
2023-03-29T02:50:03.636Z,4.00
2023-03-29T02:51:02.726Z,4.00
2023-03-29T02:52:02.689Z,4.00
2023-03-29T02:53:02.773Z,4.00
2023-03-29T02:54:02.782Z,4.00
2023-03-29T02:55:02.758Z,4.00
2023-03-29T02:56:02.651Z,4.00
2023-03-29T02:57:02.723Z,4.00
2023-03-29T02:58:02.829Z,4.00
2023-03-29T02:59:02.843Z,4.00
2023-03-29T03:00:02.796Z,4.00
2023-03-29T03:01:02.978Z,4.00
2023-03-29T03:02:02.823Z,4.00
2023-03-29T03:03:02.965Z,3.90
2023-03-29T03:04:02.901Z,4.00
2023-03-29T03:05:02.976Z,3.90
2023-03-29T03:06:02.956Z,3.90
2023-03-29T03:07:03.039Z,3.90
2023-03-29T03:08:02.941Z,3.90
2023-03-29T03:09:03.024Z,3.90
2023-03-29T03:10:03.156Z,3.90
2023-03-29T03:11:03.322Z,3.90
2023-03-29T03:12:03.049Z,3.90
2023-03-29T03:13:03.198Z,3.90
2023-03-29T03:14:03.283Z,3.90
2023-03-29T03:15:03.269Z,3.90
2023-03-29T03:16:03.350Z,3.90
2023-03-29T03:17:04.662Z,3.90
2023-03-29T03:18:03.688Z,3.90
2023-03-29T03:19:03.573Z,3.90
2023-03-29T03:20:03.562Z,3.90
2023-03-29T03:21:03.681Z,3.90
2023-03-29T03:22:03.579Z,3.90
2023-03-29T03:23:03.520Z,3.90
2023-03-29T03:24:02.622Z,3.80
2023-03-29T03:25:02.770Z,3.80
2023-03-29T03:26:02.780Z,3.90
2023-03-29T03:27:02.753Z,3.80
2023-03-29T03:28:02.744Z,3.80
2023-03-29T03:29:02.759Z,3.80
2023-03-29T03:30:02.884Z,3.80
2023-03-29T03:31:03.169Z,3.80
2023-03-29T03:32:03.177Z,3.80
2023-03-29T03:33:03.205Z,3.80
2023-03-29T03:34:03.192Z,3.80
2023-03-29T03:35:03.314Z,3.80
2023-03-29T03:36:03.341Z,3.80
2023-03-29T03:37:03.349Z,3.80
2023-03-29T03:38:03.497Z,3.80
2023-03-29T03:39:03.551Z,3.80
2023-03-29T03:40:03.559Z,3.80
2023-03-29T03:41:02.758Z,3.80
2023-03-29T03:42:02.692Z,3.80
2023-03-29T03:43:02.831Z,3.70
2023-03-29T03:44:02.773Z,3.70
2023-03-29T03:45:02.734Z,3.70
2023-03-29T03:46:02.735Z,3.70
2023-03-29T03:47:02.780Z,3.70
2023-03-29T03:48:02.833Z,3.70
2023-03-29T03:49:02.729Z,3.70
2023-03-29T03:50:02.731Z,3.70
2023-03-29T03:51:02.868Z,3.70
2023-03-29T03:52:02.776Z,3.70
2023-03-29T03:53:02.744Z,3.70
2023-03-29T03:54:02.841Z,3.70
2023-03-29T03:55:02.905Z,3.70
2023-03-29T03:56:02.854Z,3.70
2023-03-29T03:57:02.901Z,3.70
2023-03-29T03:58:02.943Z,3.70
2023-03-29T03:59:02.858Z,3.70
2023-03-29T04:00:02.969Z,3.70
2023-03-29T04:01:03.010Z,3.70
2023-03-29T04:02:02.971Z,3.70
2023-03-29T04:03:03.164Z,3.70
2023-03-29T04:04:02.727Z,3.70
2023-03-29T04:05:02.701Z,3.70
2023-03-29T04:06:02.748Z,3.70
2023-03-29T04:07:02.851Z,3.70
2023-03-29T04:08:02.998Z,3.70
2023-03-29T04:09:02.992Z,3.70
2023-03-29T04:10:03.090Z,3.70
2023-03-29T04:11:03.245Z,3.70
2023-03-29T04:12:03.140Z,3.70
2023-03-29T04:13:03.058Z,3.70
2023-03-29T04:14:03.124Z,3.70
2023-03-29T04:15:03.234Z,3.70
2023-03-29T04:16:03.202Z,3.70
2023-03-29T04:17:03.172Z,3.70
2023-03-29T04:18:03.227Z,3.70
2023-03-29T04:19:03.162Z,3.70
2023-03-29T04:20:03.143Z,3.60
2023-03-29T04:21:03.358Z,3.60
2023-03-29T04:22:03.104Z,3.60
2023-03-29T04:23:03.157Z,3.60
2023-03-29T04:24:03.247Z,3.60
2023-03-29T04:25:03.528Z,3.60
2023-03-29T04:26:02.664Z,3.60
2023-03-29T04:27:02.721Z,3.60
2023-03-29T04:28:02.701Z,3.60
2023-03-29T04:29:02.792Z,3.60
2023-03-29T04:30:02.873Z,3.60
2023-03-29T04:31:03.035Z,3.60
2023-03-29T04:32:02.924Z,3.60
2023-03-29T04:33:03.097Z,3.60
2023-03-29T04:34:03.103Z,3.60
2023-03-29T04:35:03.177Z,3.60
2023-03-29T04:36:03.174Z,3.50
2023-03-29T04:37:03.172Z,3.60
2023-03-29T04:38:03.135Z,3.60
2023-03-29T04:39:03.068Z,3.50
2023-03-29T04:40:03.048Z,3.50
2023-03-29T04:41:03.180Z,3.50
2023-03-29T04:42:03.056Z,3.50
2023-03-29T04:43:03.132Z,3.50
2023-03-29T04:44:03.096Z,3.50
2023-03-29T04:45:03.186Z,3.50
2023-03-29T04:46:03.227Z,3.50
2023-03-29T04:47:03.185Z,3.50
2023-03-29T04:48:03.237Z,3.50
2023-03-29T04:49:03.326Z,3.50
2023-03-29T04:50:03.384Z,3.50
2023-03-29T04:51:03.612Z,3.50
2023-03-29T04:52:03.371Z,3.50
2023-03-29T04:53:03.546Z,3.50
2023-03-29T04:54:03.450Z,3.50
2023-03-29T04:55:03.488Z,3.50
2023-03-29T04:56:03.540Z,3.50
2023-03-29T04:57:03.591Z,3.50
2023-03-29T04:58:03.580Z,3.50
2023-03-29T04:59:02.741Z,3.50
2023-03-29T05:00:02.757Z,3.50
2023-03-29T05:01:03.073Z,3.50
2023-03-29T05:02:03.006Z,3.50
2023-03-29T05:03:02.881Z,3.50
2023-03-29T05:04:02.950Z,3.50
2023-03-29T05:05:02.960Z,3.50
2023-03-29T05:06:03.081Z,3.50
2023-03-29T05:07:03.062Z,3.50
2023-03-29T05:08:03.058Z,3.50
2023-03-29T05:09:03.179Z,3.50
2023-03-29T05:10:03.102Z,3.50
2023-03-29T05:11:03.484Z,3.50
2023-03-29T05:12:03.329Z,3.50
2023-03-29T05:13:03.322Z,3.50
2023-03-29T05:14:03.476Z,3.50
2023-03-29T05:15:03.435Z,3.50
2023-03-29T05:16:03.594Z,3.50
2023-03-29T05:17:03.628Z,3.50
2023-03-29T05:18:02.734Z,3.60
2023-03-29T05:19:02.648Z,3.50
2023-03-29T05:20:02.904Z,3.60
2023-03-29T05:21:03.097Z,3.60
2023-03-29T05:22:03.086Z,3.60
2023-03-29T05:23:03.033Z,3.60
2023-03-29T05:24:02.994Z,3.60
2023-03-29T05:25:03.143Z,3.60
2023-03-29T05:26:03.150Z,3.60
2023-03-29T05:27:03.182Z,3.60
2023-03-29T05:28:03.201Z,3.60
2023-03-29T05:29:03.225Z,3.60
2023-03-29T05:30:02.637Z,3.60
2023-03-29T05:31:02.967Z,3.60
2023-03-29T05:32:02.847Z,3.60
2023-03-29T05:33:02.782Z,3.60
2023-03-29T05:34:02.874Z,3.60
2023-03-29T05:35:02.865Z,3.60
2023-03-29T05:36:02.872Z,3.60
2023-03-29T05:37:02.847Z,3.60
2023-03-29T05:38:02.916Z,3.60
2023-03-29T05:39:02.906Z,3.70
2023-03-29T05:40:05.485Z,3.70
2023-03-29T05:41:03.185Z,3.70
2023-03-29T05:42:02.959Z,3.70
2023-03-29T05:43:03.128Z,3.70
2023-03-29T05:44:03.167Z,3.70
2023-03-29T05:45:03.079Z,3.70
2023-03-29T05:46:03.302Z,3.70
2023-03-29T05:47:03.191Z,3.70
2023-03-29T05:48:03.260Z,3.70
2023-03-29T05:49:03.349Z,3.80
2023-03-29T05:50:03.332Z,3.80
2023-03-29T05:51:03.520Z,3.80
2023-03-29T05:52:03.309Z,3.80
2023-03-29T05:53:03.271Z,3.80
2023-03-29T05:54:03.310Z,3.80
2023-03-29T05:55:03.494Z,3.80
2023-03-29T05:56:03.508Z,3.80
2023-03-29T05:57:03.616Z,3.90
2023-03-29T05:58:03.625Z,3.90
2023-03-29T05:59:02.618Z,3.90
2023-03-29T06:00:03.099Z,3.90
2023-03-29T06:01:03.209Z,3.90
2023-03-29T06:02:03.024Z,3.90
2023-03-29T06:03:13.536Z,4.00
2023-03-29T06:04:03.055Z,4.00
2023-03-29T06:05:03.131Z,4.00
2023-03-29T06:06:03.197Z,4.00
2023-03-29T06:07:03.249Z,4.00
2023-03-29T06:08:03.289Z,4.00
2023-03-29T06:09:03.458Z,4.00
2023-03-29T06:10:03.439Z,4.00
2023-03-29T06:11:04.996Z,4.10
2023-03-29T06:12:03.589Z,4.10
2023-03-29T06:13:03.583Z,4.10
2023-03-29T06:14:03.566Z,4.10
2023-03-29T06:15:03.624Z,4.10
2023-03-29T06:16:03.565Z,4.10
2023-03-29T06:17:02.805Z,4.10
2023-03-29T06:18:02.831Z,4.10
2023-03-29T06:19:02.664Z,4.10
2023-03-29T06:20:02.695Z,4.20
2023-03-29T06:21:03.091Z,4.20
2023-03-29T06:22:02.737Z,4.20
2023-03-29T06:23:02.812Z,4.20
2023-03-29T06:24:02.840Z,4.20
2023-03-29T06:25:02.862Z,4.20
2023-03-29T06:26:03.052Z,4.20
2023-03-29T06:27:02.926Z,4.20
2023-03-29T06:28:03.063Z,4.20
2023-03-29T06:29:03.021Z,4.20
2023-03-29T06:30:03.036Z,4.20
2023-03-29T06:31:03.848Z,4.20
2023-03-29T06:32:03.050Z,4.30
2023-03-29T06:33:03.164Z,4.30
2023-03-29T06:34:03.083Z,4.30
2023-03-29T06:35:03.136Z,4.30
2023-03-29T06:36:03.142Z,4.30
2023-03-29T06:37:03.072Z,4.30
2023-03-29T06:38:03.011Z,4.30
2023-03-29T06:39:03.160Z,4.30
2023-03-29T06:40:03.080Z,4.40
2023-03-29T06:41:03.630Z,4.40
2023-03-29T06:42:10.164Z,4.40
2023-03-29T06:43:03.339Z,4.40
2023-03-29T06:44:03.470Z,4.40
2023-03-29T06:45:03.521Z,4.40
2023-03-29T06:46:03.511Z,4.40
2023-03-29T06:47:03.508Z,4.50
2023-03-29T06:48:03.722Z,4.50
2023-03-29T06:49:02.703Z,4.50
2023-03-29T06:50:02.679Z,4.50
2023-03-29T06:51:02.902Z,4.50
2023-03-29T06:52:02.754Z,4.50
2023-03-29T06:53:02.879Z,4.60
2023-03-29T06:54:02.811Z,4.60
2023-03-29T06:55:02.913Z,4.60
2023-03-29T06:56:02.962Z,4.60
2023-03-29T06:57:03.059Z,4.60
2023-03-29T06:58:03.120Z,4.60
2023-03-29T06:59:03.120Z,4.70
2023-03-29T07:00:03.148Z,4.70
2023-03-29T07:01:03.616Z,4.70
2023-03-29T07:02:03.261Z,4.70
2023-03-29T07:03:03.297Z,4.70
2023-03-29T07:04:03.400Z,4.70
2023-03-29T07:05:03.506Z,4.70
2023-03-29T07:06:02.660Z,4.80
2023-03-29T07:07:02.661Z,4.80
2023-03-29T07:08:02.715Z,4.80
2023-03-29T07:09:02.710Z,4.80
2023-03-29T07:10:02.806Z,4.80
2023-03-29T07:11:03.338Z,4.90
2023-03-29T07:12:02.923Z,4.90
2023-03-29T07:13:02.894Z,4.90
2023-03-29T07:14:03.061Z,4.90
2023-03-29T07:15:03.089Z,5.00
2023-03-29T07:16:03.183Z,5.00
2023-03-29T07:17:03.187Z,5.00
2023-03-29T07:18:03.262Z,5.00
2023-03-29T07:19:03.205Z,5.00
2023-03-29T07:20:03.220Z,5.10
2023-03-29T07:21:03.232Z,5.10
2023-03-29T07:22:03.228Z,5.10
2023-03-29T07:23:03.229Z,5.10
2023-03-29T07:24:03.291Z,5.20
2023-03-29T07:25:03.161Z,5.20
2023-03-29T07:26:03.205Z,5.20
2023-03-29T07:27:04.661Z,5.20
2023-03-29T07:28:03.490Z,5.30
2023-03-29T07:29:03.451Z,5.30
2023-03-29T07:30:03.554Z,5.30
2023-03-29T07:31:02.849Z,5.40
2023-03-29T07:32:02.751Z,5.40
2023-03-29T07:33:02.983Z,5.40
2023-03-29T07:34:02.791Z,5.50
2023-03-29T07:35:02.770Z,5.50
2023-03-29T07:36:02.837Z,5.50
2023-03-29T07:37:02.804Z,5.50
2023-03-29T07:38:02.808Z,5.60
2023-03-29T07:39:02.926Z,5.60
2023-03-29T07:40:02.964Z,5.60
2023-03-29T07:41:03.181Z,5.70
2023-03-29T07:42:02.789Z,5.70
2023-03-29T07:43:02.772Z,5.70
2023-03-29T07:44:04.011Z,5.80
2023-03-29T07:45:02.754Z,5.80
2023-03-29T07:46:02.848Z,5.90
2023-03-29T07:47:02.755Z,5.90
2023-03-29T07:48:02.802Z,5.90
2023-03-29T07:49:02.806Z,6.00
2023-03-29T07:50:02.798Z,6.00
2023-03-29T07:51:02.903Z,6.10
2023-03-29T07:52:02.893Z,6.10
2023-03-29T07:53:02.802Z,6.10
2023-03-29T07:54:02.910Z,6.20
2023-03-29T07:55:03.436Z,6.20
2023-03-29T07:56:02.976Z,6.20
2023-03-29T07:57:03.031Z,6.30
2023-03-29T07:58:02.807Z,6.30
2023-03-29T07:59:02.821Z,6.30
2023-03-29T08:00:02.841Z,6.40
2023-03-29T08:01:02.948Z,6.40
2023-03-29T08:02:02.736Z,6.40
2023-03-29T08:03:02.823Z,6.40
2023-03-29T08:04:02.858Z,6.40
2023-03-29T08:05:02.696Z,6.40
2023-03-29T08:06:02.626Z,6.50
2023-03-29T08:07:02.639Z,6.50
2023-03-29T08:08:02.773Z,6.50
2023-03-29T08:09:02.591Z,6.50
2023-03-29T08:10:02.718Z,6.50
2023-03-29T08:11:02.906Z,6.50
2023-03-29T08:12:02.710Z,6.60
2023-03-29T08:13:02.771Z,6.60
2023-03-29T08:14:02.833Z,6.60
2023-03-29T08:15:02.809Z,6.60
2023-03-29T08:16:02.803Z,6.60
2023-03-29T08:17:02.863Z,6.70
2023-03-29T08:18:02.794Z,6.70
2023-03-29T08:19:02.733Z,6.70
2023-03-29T08:20:02.836Z,6.70
2023-03-29T08:21:03.131Z,6.70
2023-03-29T08:22:03.050Z,6.80
2023-03-29T08:23:02.991Z,6.80
2023-03-29T08:24:03.165Z,6.80
2023-03-29T08:25:03.155Z,6.80
2023-03-29T08:26:03.062Z,6.90
2023-03-29T08:27:03.107Z,6.90
2023-03-29T08:28:03.035Z,6.90
2023-03-29T08:29:03.157Z,6.90
2023-03-29T08:30:03.152Z,7.00
2023-03-29T08:31:03.430Z,7.00
2023-03-29T08:32:03.359Z,7.10
2023-03-29T08:33:03.479Z,7.10
2023-03-29T08:34:03.386Z,7.10
2023-03-29T08:35:03.386Z,7.20
2023-03-29T08:36:03.492Z,7.20
2023-03-29T08:37:03.579Z,7.30
2023-03-29T08:38:02.702Z,7.30
2023-03-29T08:39:02.712Z,7.40
2023-03-29T08:40:02.710Z,7.40
2023-03-29T08:41:02.762Z,7.40
2023-03-29T08:42:02.859Z,7.50
2023-03-29T08:43:02.942Z,7.50
2023-03-29T08:44:03.108Z,7.50
2023-03-29T08:45:03.184Z,7.60
2023-03-29T08:46:03.197Z,7.60
2023-03-29T08:47:03.085Z,7.60
2023-03-29T08:48:03.136Z,7.70
2023-03-29T08:49:03.559Z,7.70
2023-03-29T08:50:03.191Z,7.70
2023-03-29T08:51:03.253Z,7.80
2023-03-29T08:52:03.270Z,7.80
2023-03-29T08:53:03.237Z,7.90
2023-03-29T08:54:03.168Z,7.90
2023-03-29T08:55:02.879Z,8.00
2023-03-29T08:56:02.774Z,8.10
2023-03-29T08:57:02.818Z,8.10
2023-03-29T08:58:02.789Z,8.10
2023-03-29T08:59:02.782Z,8.20
2023-03-29T09:00:02.938Z,8.30
2023-03-29T09:01:03.099Z,8.30
2023-03-29T09:02:02.872Z,8.40
2023-03-29T09:03:03.031Z,8.50
2023-03-29T09:04:03.131Z,8.60
2023-03-29T09:05:02.976Z,8.60
2023-03-29T09:06:02.935Z,8.70
2023-03-29T09:07:02.928Z,8.80
2023-03-29T09:08:03.127Z,8.90
2023-03-29T09:09:03.047Z,9.00
2023-03-29T09:10:02.968Z,9.10
2023-03-29T09:11:03.310Z,9.20
2023-03-29T09:12:03.410Z,9.20
2023-03-29T09:13:02.804Z,9.30
2023-03-29T09:14:02.773Z,9.40
2023-03-29T09:15:03.667Z,9.40
2023-03-29T09:16:03.674Z,9.50
2023-03-29T09:17:02.766Z,9.50
2023-03-29T09:18:02.830Z,9.60
2023-03-29T09:19:02.808Z,9.60
2023-03-29T09:20:02.859Z,9.70
2023-03-29T09:21:02.898Z,9.80
2023-03-29T09:22:02.963Z,9.80
2023-03-29T09:23:02.932Z,9.90
2023-03-29T09:24:03.104Z,9.90
2023-03-29T09:25:03.003Z,10.00
2023-03-29T09:26:02.971Z,10.10
2023-03-29T09:27:02.965Z,10.20
2023-03-29T09:28:03.061Z,10.20
2023-03-29T09:29:02.941Z,10.30
2023-03-29T09:30:02.962Z,10.30
2023-03-29T09:31:03.108Z,10.30
2023-03-29T09:32:03.087Z,10.40
2023-03-29T09:33:03.022Z,10.40
2023-03-29T09:34:02.971Z,10.40
2023-03-29T09:35:02.941Z,10.40
2023-03-29T09:36:03.043Z,10.40
2023-03-29T09:37:03.074Z,10.50
2023-03-29T09:38:03.172Z,10.50
2023-03-29T09:39:03.160Z,10.50
2023-03-29T09:40:04.642Z,10.60
2023-03-29T09:41:03.288Z,10.60
2023-03-29T09:42:03.118Z,10.60
2023-03-29T09:43:03.106Z,10.60
2023-03-29T09:44:03.075Z,10.70
2023-03-29T09:45:03.133Z,10.70
2023-03-29T09:46:03.280Z,10.70
2023-03-29T09:47:03.366Z,10.70
2023-03-29T09:48:03.453Z,10.70
2023-03-29T09:49:04.266Z,10.80
2023-03-29T09:50:03.367Z,10.80
2023-03-29T09:51:03.497Z,10.80
2023-03-29T09:52:03.384Z,10.90
2023-03-29T09:53:03.536Z,10.90
2023-03-29T09:54:03.644Z,11.00
2023-03-29T09:55:02.806Z,11.00
2023-03-29T09:56:02.730Z,11.00
2023-03-29T09:57:02.681Z,11.10
2023-03-29T09:58:02.788Z,11.10
2023-03-29T09:59:02.861Z,11.10
2023-03-29T10:00:02.893Z,11.10
2023-03-29T10:01:03.166Z,11.20
2023-03-29T10:02:02.926Z,11.20
2023-03-29T10:03:02.887Z,11.20
2023-03-29T10:04:03.024Z,11.20
2023-03-29T10:05:03.040Z,11.20
2023-03-29T10:06:03.009Z,11.20
2023-03-29T10:07:03.056Z,11.20
2023-03-29T10:08:03.065Z,11.20
2023-03-29T10:09:03.495Z,11.20
2023-03-29T10:10:03.168Z,11.20
2023-03-29T10:11:03.542Z,11.30
2023-03-29T10:12:03.464Z,11.30
2023-03-29T10:13:03.562Z,11.30
2023-03-29T10:14:04.808Z,11.30
2023-03-29T10:15:02.770Z,11.30
2023-03-29T10:16:03.282Z,11.30
2023-03-29T10:17:03.221Z,11.30
2023-03-29T10:18:03.602Z,11.30
2023-03-29T10:19:03.484Z,11.30
2023-03-29T10:20:04.474Z,11.30
2023-03-29T10:21:03.731Z,11.40
2023-03-29T10:22:03.511Z,11.40
2023-03-29T10:23:03.493Z,11.40
2023-03-29T10:24:03.558Z,11.40
2023-03-29T10:25:03.659Z,11.40
2023-03-29T10:26:02.644Z,11.40
2023-03-29T10:27:02.708Z,11.40
2023-03-29T10:28:02.679Z,11.40
2023-03-29T10:29:02.675Z,11.40
2023-03-29T10:30:02.650Z,11.40
2023-03-29T10:31:02.827Z,11.30
2023-03-29T10:32:02.773Z,11.40
2023-03-29T10:33:02.878Z,11.30
2023-03-29T10:34:02.800Z,11.30
2023-03-29T10:35:02.942Z,11.30
2023-03-29T10:36:02.993Z,11.30
2023-03-29T10:37:02.851Z,11.30
2023-03-29T10:38:02.945Z,11.30
2023-03-29T10:39:05.692Z,11.30
2023-03-29T10:40:03.131Z,11.30
2023-03-29T10:41:03.346Z,11.30
2023-03-29T10:42:03.273Z,11.30
2023-03-29T10:43:03.346Z,11.20
2023-03-29T10:44:03.302Z,11.30
2023-03-29T10:45:03.417Z,11.30
2023-03-29T10:46:03.578Z,11.30
2023-03-29T10:47:02.647Z,11.40
2023-03-29T10:48:02.743Z,11.40
2023-03-29T10:49:02.720Z,11.50
2023-03-29T10:50:02.705Z,11.60
2023-03-29T10:51:02.792Z,11.70
2023-03-29T10:52:03.604Z,11.70
2023-03-29T10:53:03.585Z,11.80
2023-03-29T10:54:03.452Z,11.90
2023-03-29T10:55:03.473Z,12.00
2023-03-29T10:56:03.415Z,12.00
2023-03-29T10:57:03.480Z,12.10
2023-03-29T10:58:03.478Z,12.20
2023-03-29T10:59:03.445Z,12.30
2023-03-29T11:00:03.521Z,12.30
2023-03-29T11:01:03.810Z,12.30
2023-03-29T11:02:02.810Z,12.30
2023-03-29T11:03:02.865Z,12.40
2023-03-29T11:04:03.045Z,12.40
2023-03-29T11:05:02.948Z,12.40
2023-03-29T11:06:03.003Z,12.40
2023-03-29T11:07:03.084Z,12.40
2023-03-29T11:08:03.152Z,12.40
2023-03-29T11:09:03.030Z,12.50
2023-03-29T11:10:03.016Z,12.50
2023-03-29T11:11:03.164Z,12.50
2023-03-29T11:12:12.513Z,12.50
2023-03-29T11:13:03.104Z,12.60
2023-03-29T11:14:03.027Z,12.60
2023-03-29T11:15:03.101Z,12.60
2023-03-29T11:16:03.016Z,12.60
2023-03-29T11:17:03.042Z,12.70
2023-03-29T11:18:03.157Z,12.70
2023-03-29T11:19:03.170Z,12.70
2023-03-29T11:20:05.038Z,12.70
2023-03-29T11:21:03.485Z,12.70
2023-03-29T11:22:03.287Z,12.70
2023-03-29T11:23:03.264Z,12.70
2023-03-29T11:24:03.373Z,12.70
2023-03-29T11:25:03.286Z,12.70
2023-03-29T11:26:03.348Z,12.70
2023-03-29T11:27:03.412Z,12.70
2023-03-29T11:28:03.526Z,12.70
2023-03-29T11:29:03.603Z,12.80
2023-03-29T11:30:03.505Z,12.80
2023-03-29T11:31:03.613Z,12.90
2023-03-29T11:32:03.544Z,12.90
2023-03-29T11:33:03.616Z,12.90
2023-03-29T11:34:02.656Z,12.90
2023-03-29T11:35:03.652Z,13.00
2023-03-29T11:36:02.751Z,12.90
2023-03-29T11:37:02.838Z,12.90
2023-03-29T11:38:02.737Z,12.90
2023-03-29T11:39:02.689Z,12.90
2023-03-29T11:40:02.778Z,12.90
2023-03-29T11:41:02.907Z,12.90
2023-03-29T11:42:02.739Z,12.80
2023-03-29T11:43:02.656Z,12.80
2023-03-29T11:44:03.616Z,12.80
2023-03-29T11:45:02.689Z,12.80
2023-03-29T11:46:02.684Z,12.80
2023-03-29T11:47:02.671Z,12.80
2023-03-29T11:48:02.719Z,12.80
2023-03-29T11:49:02.779Z,12.80
2023-03-29T11:50:02.674Z,12.80
2023-03-29T11:51:02.773Z,12.80
2023-03-29T11:52:02.743Z,12.80
2023-03-29T11:53:02.772Z,12.80
2023-03-29T11:54:02.733Z,12.90
2023-03-29T11:55:02.724Z,12.90
2023-03-29T11:56:02.777Z,12.90
2023-03-29T11:57:02.842Z,12.90
2023-03-29T11:58:02.769Z,12.90
2023-03-29T11:59:02.737Z,12.90
2023-03-29T12:00:02.689Z,12.90
2023-03-29T12:01:03.026Z,12.90
2023-03-29T12:02:02.848Z,12.90
2023-03-29T12:03:02.833Z,12.90
2023-03-29T12:04:02.746Z,12.80
2023-03-29T12:05:02.752Z,12.80
2023-03-29T12:06:02.777Z,12.80
2023-03-29T12:07:02.813Z,12.80
2023-03-29T12:08:02.733Z,12.80
2023-03-29T12:09:02.700Z,12.80
2023-03-29T12:10:02.816Z,12.80
2023-03-29T12:11:03.048Z,12.80
2023-03-29T12:12:03.013Z,12.90
2023-03-29T12:13:02.917Z,12.80
2023-03-29T12:14:03.093Z,12.90
2023-03-29T12:15:03.088Z,12.90
2023-03-29T12:16:03.098Z,12.90
2023-03-29T12:17:03.127Z,12.90
2023-03-29T12:18:03.220Z,12.90
2023-03-29T12:19:03.069Z,12.90
2023-03-29T12:20:03.091Z,12.90
2023-03-29T12:21:03.046Z,12.90
2023-03-29T12:22:03.082Z,12.90
2023-03-29T12:23:03.016Z,13.00
2023-03-29T12:24:03.010Z,13.00
2023-03-29T12:25:03.053Z,13.00
2023-03-29T12:26:03.161Z,13.10
2023-03-29T12:27:03.028Z,13.10
2023-03-29T12:28:03.072Z,13.10
2023-03-29T12:29:03.130Z,13.10
2023-03-29T12:30:03.148Z,13.10
2023-03-29T12:31:03.180Z,13.20
2023-03-29T12:32:03.199Z,13.20
2023-03-29T12:33:03.095Z,13.20
2023-03-29T12:34:03.143Z,13.20
2023-03-29T12:35:03.159Z,13.20
2023-03-29T12:36:03.218Z,13.10
2023-03-29T12:37:03.212Z,13.10
2023-03-29T12:38:03.351Z,13.20
2023-03-29T12:39:03.432Z,13.20
2023-03-29T12:40:03.374Z,13.20
2023-03-29T12:41:03.679Z,13.20
2023-03-29T12:42:02.895Z,13.20
2023-03-29T12:43:02.940Z,13.20
2023-03-29T12:44:02.965Z,13.20
2023-03-29T12:45:02.999Z,13.30
2023-03-29T12:46:03.047Z,13.30
2023-03-29T12:47:02.869Z,13.30
2023-03-29T12:48:02.844Z,13.30
2023-03-29T12:49:03.382Z,13.30
2023-03-29T12:50:03.366Z,13.30
2023-03-29T12:51:03.375Z,13.40
2023-03-29T12:52:03.330Z,13.40
2023-03-29T12:53:03.392Z,13.40
2023-03-29T12:54:03.393Z,13.40
2023-03-29T12:55:03.327Z,13.40
2023-03-29T12:56:03.499Z,13.50
2023-03-29T12:57:03.389Z,13.50
2023-03-29T12:58:03.505Z,13.50
2023-03-29T12:59:03.453Z,13.50
2023-03-29T13:00:03.605Z,13.50
2023-03-29T13:01:05.501Z,13.50
2023-03-29T13:02:03.625Z,13.60
2023-03-29T13:03:04.247Z,13.60
2023-03-29T13:04:03.155Z,13.60
2023-03-29T13:05:03.225Z,13.60
2023-03-29T13:06:03.449Z,13.60
2023-03-29T13:07:03.350Z,13.60
2023-03-29T13:08:03.467Z,13.60
2023-03-29T13:09:03.479Z,13.60
2023-03-29T13:10:03.532Z,13.60